Time;durP1;ratioP1;P1;durP2;ratioP2;P2;SDS_P1;SDS_P2;PMS_P1;PMS_P2;Temp;Humidity;BMP_temperature;BMP_pressure;BME280_temperature;BME280_humidity;BME280_pressure;Samples;Min_cycle;Max_cycle;Signal;HPM_P1;HPM_P2
2022/04/22 00:01:41;;;;;;;12.40;5.83;;;5.20;87.30;;;;;;4810702;29;20379;-85
2022/04/22 00:04:06;;;;;;;9.87;5.77;;;5.20;87.20;;;;;;4827052;29;20200;-85
2022/04/22 00:06:32;;;;;;;13.00;5.80;;;5.20;87.10;;;;;;4826686;29;20282;-85
2022/04/22 00:08:57;;;;;;;9.07;5.40;;;5.20;87.10;;;;;;4810519;29;20209;-85
2022/04/22 00:11:29;;;;;;;9.17;6.10;;;5.20;87.10;;;;;;4826695;29;20176;-86
2022/04/22 00:13:56;;;;;;;11.87;6.00;;;5.20;87.10;;;;;;4810443;29;20674;-85
2022/04/22 00:16:21;;;;;;;8.80;5.57;;;5.20;87.10;;;;;;4810135;29;20212;-86
2022/04/22 00:18:47;;;;;;;17.50;7.20;;;5.10;87.10;;;;;;4826908;29;20181;-86
2022/04/22 00:21:13;;;;;;;13.80;5.90;;;5.00;87.10;;;;;;4810345;29;20176;-85
2022/04/22 00:23:39;;;;;;;10.63;5.73;;;4.90;87.10;;;;;;4810309;29;20275;-86
2022/04/22 00:26:05;;;;;;;10.13;5.77;;;4.90;87.30;;;;;;4809999;29;20218;-86
2022/04/22 00:28:30;;;;;;;15.27;5.73;;;4.80;87.30;;;;;;4826410;29;20201;-85
2022/04/22 00:30:56;;;;;;;9.17;5.77;;;4.80;87.40;;;;;;4810112;29;20180;-85
2022/04/22 00:33:22;;;;;;;10.43;5.60;;;4.80;87.50;;;;;;4826268;29;20184;-85
2022/04/22 00:35:48;;;;;;;10.20;5.63;;;4.80;87.70;;;;;;4825769;29;20265;-85
2022/04/22 00:38:14;;;;;;;7.73;5.00;;;4.80;87.60;;;;;;4810055;29;20196;-84
2022/04/22 00:40:40;;;;;;;13.13;5.30;;;4.80;87.70;;;;;;4826414;29;20267;-85
2022/04/22 00:43:19;;;;;;;7.00;5.33;;;4.70;87.60;;;;;;4826114;29;20651;-85
2022/04/22 00:45:46;;;;;;;13.13;6.43;;;4.70;87.80;;;;;;4809897;29;20207;-85
2022/04/22 00:48:12;;;;;;;9.93;5.80;;;4.60;87.70;;;;;;4809861;29;20180;-85
2022/04/22 00:50:39;;;;;;;12.73;6.20;;;4.60;87.80;;;;;;4810020;29;20337;-85
2022/04/22 00:53:05;;;;;;;8.67;5.43;;;4.70;88.00;;;;;;4809658;29;20243;-85
2022/04/22 00:55:32;;;;;;;11.80;5.70;;;4.60;87.90;;;;;;4825921;29;20699;-87
2022/04/22 00:57:59;;;;;;;11.47;5.43;;;4.60;87.90;;;;;;4826007;29;20179;-87
2022/04/22 01:00:25;;;;;;;7.47;5.77;;;4.50;88.00;;;;;;4826130;29;20195;-86
2022/04/22 01:02:51;;;;;;;10.33;5.63;;;4.50;88.10;;;;;;4826120;29;20168;-86
2022/04/22 01:10:45;;;;;;;13.37;6.60;;;4.40;88.10;;;;;;4825810;29;20170;-86
2022/04/22 01:13:11;;;;;;;7.57;5.33;;;4.30;88.10;;;;;;4825789;29;20184;-86
2022/04/22 01:15:37;;;;;;;9.47;5.70;;;4.30;88.20;;;;;;4825761;29;20223;-85
2022/04/22 01:18:03;;;;;;;10.60;4.80;;;4.30;88.20;;;;;;4825746;29;20184;-86
2022/04/22 01:20:29;;;;;;;8.40;5.17;;;4.20;88.20;;;;;;4825890;29;20771;-86
2022/04/22 01:22:54;;;;;;;10.47;4.80;;;4.20;88.30;;;;;;4809224;29;20187;-86
2022/04/22 01:25:20;;;;;;;8.13;5.50;;;4.20;88.40;;;;;;4808988;29;20219;-86
2022/04/22 01:27:50;;;;;;;8.40;4.57;;;4.10;88.40;;;;;;4810007;29;20180;-86
2022/04/22 01:30:20;;;;;;;7.37;4.73;;;4.10;88.60;;;;;;4825712;29;20184;-86
2022/04/22 01:32:50;;;;;;;9.20;4.73;;;4.20;88.70;;;;;;4826007;29;20255;-86
2022/04/22 01:35:17;;;;;;;9.00;5.10;;;4.20;88.90;;;;;;4825866;29;20216;-86
2022/04/22 01:37:43;;;;;;;9.63;6.97;;;4.30;88.80;;;;;;4809556;29;20210;-86
2022/04/22 01:40:10;;;;;;;13.13;5.47;;;4.20;88.80;;;;;;4826093;29;20175;-86
2022/04/22 01:42:36;;;;;;;8.10;5.57;;;4.20;88.80;;;;;;4809397;29;20179;-86
2022/04/22 01:45:01;;;;;;;8.27;5.20;;;4.20;88.80;;;;;;4825842;29;20184;-86
2022/04/22 01:47:27;;;;;;;8.50;5.67;;;4.20;88.90;;;;;;4824803;29;20240;-86
2022/04/22 01:49:52;;;;;;;12.37;5.40;;;4.20;88.90;;;;;;4809283;29;20187;-86
2022/04/22 01:52:18;;;;;;;6.77;5.03;;;4.20;88.90;;;;;;4825644;29;20191;-86
2022/04/22 01:54:44;;;;;;;9.57;5.30;;;4.10;88.90;;;;;;4825516;29;20287;-86
2022/04/22 01:57:10;;;;;;;8.17;4.87;;;4.10;89.00;;;;;;4809667;29;20649;-86
2022/04/22 01:59:35;;;;;;;9.93;5.20;;;4.20;89.10;;;;;;4825665;29;20175;-86
2022/04/22 02:02:01;;;;;;;10.97;5.13;;;4.30;89.10;;;;;;4825615;29;20570;-86
2022/04/22 02:04:26;;;;;;;10.13;5.77;;;4.30;89.10;;;;;;4825522;29;20227;-86
2022/04/22 02:06:52;;;;;;;8.50;4.63;;;4.20;89.00;;;;;;4825718;29;20204;-86
2022/04/22 02:09:18;;;;;;;9.23;5.33;;;4.20;89.00;;;;;;4825931;29;20601;-86
2022/04/22 02:11:43;;;;;;;8.00;5.87;;;4.10;89.10;;;;;;4808964;29;20672;-86
2022/04/22 02:14:09;;;;;;;7.40;4.93;;;4.10;89.10;;;;;;4825355;29;20188;-86
2022/04/22 02:16:35;;;;;;;11.47;4.80;;;4.20;89.10;;;;;;4808618;29;20223;-86
2022/04/22 02:19:00;;;;;;;11.10;4.83;;;4.20;89.10;;;;;;4825290;29;20176;-86
2022/04/22 02:21:26;;;;;;;11.97;5.40;;;4.30;89.10;;;;;;4808651;29;20655;-86
2022/04/22 02:23:51;;;;;;;7.23;4.77;;;4.30;89.00;;;;;;4825103;29;20603;-86
2022/04/22 02:26:17;;;;;;;10.20;4.57;;;4.30;89.00;;;;;;4808921;29;20777;-86
2022/04/22 02:28:42;;;;;;;8.30;4.40;;;4.30;88.90;;;;;;4825132;29;20259;-86
2022/04/22 02:31:10;;;;;;;12.57;4.33;;;4.30;88.80;;;;;;4808596;29;20759;-86
2022/04/22 02:33:40;;;;;;;9.17;4.30;;;4.20;88.80;;;;;;4808487;29;20658;-86
2022/04/22 02:36:06;;;;;;;7.73;4.73;;;4.20;88.80;;;;;;4808475;29;20264;-86
2022/04/22 02:38:32;;;;;;;6.03;4.57;;;4.20;88.80;;;;;;4808520;29;20275;-86
2022/04/22 02:46:28;;;;;;;10.93;5.10;;;4.30;88.70;;;;;;4825286;29;20627;-86
2022/04/22 02:48:57;;;;;;;6.60;4.33;;;4.30;88.70;;;;;;4825128;29;20200;-86
2022/04/22 02:51:23;;;;;;;14.90;4.63;;;4.30;88.90;;;;;;4825012;29;20172;-87
2022/04/22 02:53:49;;;;;;;9.80;3.97;;;4.40;88.80;;;;;;4825030;29;20180;-86
2022/04/22 02:56:17;;;;;;;7.30;4.70;;;4.40;88.70;;;;;;4808401;29;20601;-86
2022/04/22 02:58:43;;;;;;;10.37;4.57;;;4.50;88.80;;;;;;4808164;29;20325;-86
2022/04/22 03:01:08;;;;;;;8.13;4.30;;;4.40;88.80;;;;;;4808344;29;20256;-86
2022/04/22 03:03:34;;;;;;;7.30;5.20;;;4.40;88.70;;;;;;4824883;29;20209;-87
2022/04/22 03:06:00;;;;;;;9.40;4.50;;;4.50;89.10;;;;;;4808282;29;20211;-86
2022/04/22 03:08:25;;;;;;;7.17;4.00;;;4.70;88.90;;;;;;4808677;29;20283;-86
2022/04/22 03:10:51;;;;;;;9.17;4.40;;;4.50;88.70;;;;;;4808399;29;20271;-86
2022/04/22 03:13:16;;;;;;;9.57;4.13;;;4.60;89.00;;;;;;4824629;29;20543;-85
2022/04/22 03:15:42;;;;;;;11.67;5.50;;;4.60;89.00;;;;;;4824650;29;20223;-85
2022/04/22 03:18:09;;;;;;;10.53;4.80;;;4.60;89.00;;;;;;4807987;29;20184;-85
2022/04/22 03:20:35;;;;;;;11.23;4.63;;;4.60;89.10;;;;;;4808054;29;20267;-85
2022/04/22 03:23:00;;;;;;;10.37;4.73;;;4.60;89.10;;;;;;4807906;29;20237;-85
2022/04/22 03:25:26;;;;;;;8.80;5.53;;;4.70;89.20;;;;;;4824204;29;20584;-85
2022/04/22 03:27:51;;;;;;;7.97;4.60;;;4.80;89.30;;;;;;4808071;29;20203;-85
2022/04/22 03:30:18;;;;;;;9.50;5.20;;;4.90;89.20;;;;;;4824400;29;20652;-85
2022/04/22 03:32:43;;;;;;;10.13;5.47;;;5.00;89.10;;;;;;4807846;29;20189;-85
2022/04/22 03:35:09;;;;;;;9.17;5.60;;;5.00;89.10;;;;;;4824058;29;20775;-85
2022/04/22 03:37:35;;;;;;;9.07;5.03;;;5.10;88.90;;;;;;4807723;29;20184;-85
2022/04/22 03:40:01;;;;;;;10.93;4.57;;;5.00;88.80;;;;;;4807755;29;20572;-85
2022/04/22 03:42:29;;;;;;;8.67;4.70;;;5.10;88.80;;;;;;4807635;29;20184;-85
2022/04/22 03:44:58;;;;;;;9.57;5.47;;;5.00;88.70;;;;;;4807535;29;20647;-85
2022/04/22 03:47:23;;;;;;;8.57;5.00;;;5.00;88.70;;;;;;4807727;29;20223;-85
2022/04/22 03:49:49;;;;;;;10.90;5.33;;;4.90;88.60;;;;;;4824308;29;20295;-85
2022/04/22 03:52:15;;;;;;;9.70;5.30;;;4.80;88.70;;;;;;4807603;29;20188;-85
2022/04/22 03:54:41;;;;;;;6.57;4.97;;;4.80;88.70;;;;;;4824229;29;20184;-85
2022/04/22 03:59:54;;;;;;;11.80;5.20;;;4.80;88.80;;;;;;4824285;29;20168;-86
2022/04/22 04:02:20;;;;;;;6.90;4.70;;;4.80;88.80;;;;;;4823966;29;20206;-85
2022/04/22 04:04:45;;;;;;;16.13;5.40;;;4.70;88.80;;;;;;4823905;29;20226;-86
2022/04/22 04:07:11;;;;;;;12.00;5.47;;;4.70;88.80;;;;;;4823993;29;20259;-85
2022/04/22 04:17:50;;;;;;;9.57;4.37;;;4.60;88.80;;;;;;4827031;29;20175;-86
2022/04/22 04:23:14;;;;;;;9.17;4.70;;;4.50;88.50;;;;;;4827052;29;20171;-85
2022/04/22 04:25:41;;;;;;;9.27;5.70;;;4.70;88.70;;;;;;4810370;29;20280;-85
2022/04/22 04:28:09;;;;;;;9.73;5.00;;;4.70;88.50;;;;;;4827480;29;20692;-85
2022/04/22 04:30:42;;;;;;;10.00;4.90;;;4.80;88.60;;;;;;4810524;29;20280;-85
2022/04/22 04:33:08;;;;;;;7.77;4.63;;;5.00;88.50;;;;;;4826869;29;20176;-85
2022/04/22 04:35:38;;;;;;;8.30;5.13;;;5.10;88.30;;;;;;4810280;29;20216;-85
2022/04/22 04:38:06;;;;;;;10.47;4.57;;;5.30;88.30;;;;;;4810503;29;20172;-85
2022/04/22 04:40:32;;;;;;;9.57;5.60;;;5.60;88.10;;;;;;4826433;29;20204;-84
2022/04/22 04:42:58;;;;;;;8.10;5.13;;;5.70;87.90;;;;;;4826489;29;20272;-84
2022/04/22 04:45:23;;;;;;;18.20;4.97;;;5.80;87.60;;;;;;4826474;29;20272;-85
2022/04/22 04:47:49;;;;;;;10.90;4.30;;;5.90;87.30;;;;;;4826567;29;20658;-85
2022/04/22 04:50:14;;;;;;;7.83;4.50;;;6.10;86.90;;;;;;4810029;29;20563;-85
2022/04/22 04:52:41;;;;;;;11.47;5.10;;;6.20;86.50;;;;;;4826293;29;20273;-85
2022/04/22 04:55:08;;;;;;;10.77;4.40;;;6.30;86.30;;;;;;4826210;29;20201;-85
2022/04/22 04:57:34;;;;;;;6.90;4.53;;;6.30;86.10;;;;;;4810029;29;20182;-86
2022/04/22 05:00:01;;;;;;;8.23;4.33;;;6.30;86.00;;;;;;4826263;29;20666;-85
2022/04/22 05:02:26;;;;;;;6.40;4.27;;;6.30;86.00;;;;;;4826747;29;20216;-85
2022/04/22 05:04:52;;;;;;;10.40;4.50;;;6.40;86.10;;;;;;4809933;29;20225;-85
2022/04/22 05:07:18;;;;;;;9.77;5.00;;;6.50;85.90;;;;;;4826212;29;20613;-85
2022/04/22 05:09:43;;;;;;;8.27;5.13;;;6.50;86.00;;;;;;4826384;29;20761;-86
2022/04/22 05:12:10;;;;;;;10.83;4.50;;;6.60;86.00;;;;;;4810307;29;20200;-85
2022/04/22 05:14:36;;;;;;;7.40;4.20;;;6.60;85.60;;;;;;4809771;29;20194;-86
2022/04/22 05:17:02;;;;;;;6.40;4.17;;;6.60;85.60;;;;;;4809782;29;20218;-85
2022/04/22 05:19:27;;;;;;;11.43;4.30;;;6.70;85.60;;;;;;4826444;29;20576;-86
2022/04/22 05:21:55;;;;;;;6.73;4.50;;;6.70;85.50;;;;;;4825977;29;20191;-85
2022/04/22 05:24:21;;;;;;;5.30;3.90;;;6.80;85.40;;;;;;4826197;29;20270;-85
2022/04/22 05:26:47;;;;;;;6.00;3.30;;;6.80;84.90;;;;;;4809410;29;20820;-86
2022/04/22 05:34:42;;;;;;;9.80;4.10;;;7.00;84.70;;;;;;4826153;29;20175;-85
2022/04/22 05:37:08;;;;;;;4.77;3.93;;;7.10;84.50;;;;;;4809396;29;20214;-85
2022/04/22 05:39:33;;;;;;;8.60;3.80;;;7.20;84.40;;;;;;4825789;29;20187;-86
2022/04/22 05:42:02;;;;;;;5.67;3.60;;;7.30;84.40;;;;;;4825725;29;20766;-87
2022/04/22 05:44:28;;;;;;;8.50;4.97;;;7.30;84.20;;;;;;4809287;29;20187;-86
2022/04/22 05:46:54;;;;;;;7.00;3.80;;;7.30;84.10;;;;;;4809205;29;20211;-86
2022/04/22 05:49:20;;;;;;;6.90;3.60;;;7.40;83.50;;;;;;4825950;29;20256;-86
2022/04/22 05:51:45;;;;;;;8.77;3.73;;;7.40;83.60;;;;;;4809384;29;20195;-87
2022/04/22 05:54:11;;;;;;;7.57;3.40;;;7.50;83.40;;;;;;4809260;29;20199;-86
2022/04/22 05:56:36;;;;;;;7.73;4.13;;;7.60;83.60;;;;;;4809023;29;20262;-85
2022/04/22 05:59:03;;;;;;;5.93;4.20;;;7.60;83.40;;;;;;4809007;29;20218;-87
2022/04/22 06:01:29;;;;;;;11.67;5.07;;;7.70;83.60;;;;;;4825473;29;20305;-86
2022/04/22 06:03:54;;;;;;;5.87;4.00;;;7.70;83.40;;;;;;4825378;29;20654;-86
2022/04/22 06:06:20;;;;;;;6.57;3.80;;;7.80;83.60;;;;;;4808759;29;20212;-86
2022/04/22 06:11:29;;;;;;;10.37;4.23;;;7.90;83.10;;;;;;4825593;29;20673;-86
2022/04/22 06:13:55;;;;;;;7.67;3.37;;;8.00;83.20;;;;;;4809167;29;20199;-86
2022/04/22 06:16:21;;;;;;;8.83;3.63;;;8.10;82.60;;;;;;4808728;29;20226;-86
2022/04/22 06:18:46;;;;;;;11.13;4.90;;;8.20;82.70;;;;;;4808594;29;20678;-86
2022/04/22 06:21:12;;;;;;;6.50;3.70;;;8.30;82.40;;;;;;4808908;29;20184;-86
2022/04/22 06:23:38;;;;;;;8.37;4.53;;;8.30;82.10;;;;;;4808846;29;20176;-86
2022/04/22 06:26:04;;;;;;;11.40;4.10;;;8.30;81.90;;;;;;4825097;29;20625;-86
2022/04/22 06:28:30;;;;;;;6.43;3.70;;;8.40;81.60;;;;;;4808707;29;20222;-86
2022/04/22 06:30:56;;;;;;;4.23;3.10;;;8.60;82.00;;;;;;4808518;29;20196;-86
2022/04/22 06:33:22;;;;;;;6.47;3.27;;;8.50;80.60;;;;;;4808172;29;20180;-86
2022/04/22 06:35:48;;;;;;;7.80;3.27;;;8.60;80.90;;;;;;4825113;29;20204;-86
2022/04/22 06:38:18;;;;;;;6.13;3.80;;;8.60;80.70;;;;;;4824991;29;20180;-86
2022/04/22 06:46:18;;;;;;;7.77;3.60;;;8.80;80.10;;;;;;4824926;29;20227;-87
2022/04/22 06:48:44;;;;;;;3.60;2.63;;;8.80;80.10;;;;;;4808225;29;20191;-86
2022/04/22 06:51:11;;;;;;;7.73;4.40;;;8.90;79.90;;;;;;4808608;29;20567;-88
2022/04/22 06:53:37;;;;;;;6.60;3.07;;;9.00;80.50;;;;;;4824877;29;20263;-86
2022/04/22 06:56:06;;;;;;;5.77;3.40;;;9.20;80.00;;;;;;4808826;29;20212;-86
2022/04/22 06:58:34;;;;;;;10.77;3.87;;;9.30;79.20;;;;;;4825212;29;20225;-86
2022/04/22 07:01:00;;;;;;;7.30;3.77;;;9.30;78.90;;;;;;4808697;29;20180;-86
2022/04/22 07:03:25;;;;;;;7.70;3.00;;;9.30;79.00;;;;;;4808361;29;20267;-86
2022/04/22 07:05:52;;;;;;;5.80;3.30;;;9.30;78.40;;;;;;4824549;29;20785;-87
2022/04/22 07:08:19;;;;;;;6.57;3.23;;;9.40;78.90;;;;;;4824673;29;20184;-87
2022/04/22 07:10:46;;;;;;;8.37;3.37;;;9.40;78.10;;;;;;4824386;29;20195;-87
2022/04/22 07:13:12;;;;;;;6.30;3.57;;;9.50;78.10;;;;;;4824783;29;20176;-87
2022/04/22 07:15:47;;;;;;;3.63;3.10;;;9.50;78.40;;;;;;4824571;29;20273;-86
2022/04/22 07:18:13;;;;;;;7.77;3.20;;;9.70;77.30;;;;;;4808001;29;20172;-86
2022/04/22 07:20:39;;;;;;;4.47;2.70;;;9.70;77.10;;;;;;4808239;29;20175;-86
2022/04/22 07:23:05;;;;;;;6.10;3.37;;;9.80;77.70;;;;;;4807008;29;20189;-87
2022/04/22 07:25:31;;;;;;;5.17;3.60;;;9.90;76.50;;;;;;4808125;29;20221;-87
2022/04/22 07:27:58;;;;;;;5.17;3.13;;;9.90;76.50;;;;;;4824427;29;20211;-87
2022/04/22 07:30:24;;;;;;;6.33;3.27;;;10.10;77.10;;;;;;4808203;29;20595;-86
2022/04/22 07:32:51;;;;;;;7.40;4.37;;;10.20;76.90;;;;;;4824564;29;20721;-86
2022/04/22 07:35:19;;;;;;;7.47;3.77;;;10.30;76.40;;;;;;4824518;29;20575;-86
2022/04/22 07:37:50;;;;;;;6.50;2.67;;;10.30;76.50;;;;;;4824436;29;20180;-86
2022/04/22 07:40:19;;;;;;;9.53;3.47;;;10.30;75.20;;;;;;4808399;29;20215;-87
2022/04/22 07:48:19;;;;;;;6.50;3.10;;;10.60;75.70;;;;;;4828479;29;20586;-86
2022/04/22 07:50:46;;;;;;;6.03;2.83;;;10.60;74.90;;;;;;4811687;29;20192;-87
2022/04/22 07:53:12;;;;;;;7.03;2.70;;;10.80;75.50;;;;;;4811506;29;20718;-86
2022/04/22 07:55:38;;;;;;;7.47;3.80;;;10.70;74.00;;;;;;4827662;29;20243;-87
2022/04/22 07:58:06;;;;;;;5.23;2.93;;;10.80;74.60;;;;;;4811671;29;20183;-87
2022/04/22 08:00:32;;;;;;;3.10;2.57;;;10.70;73.60;;;;;;4829183;29;20172;-87
2022/04/22 08:02:58;;;;;;;6.13;2.87;;;11.00;74.30;;;;;;4812333;29;20568;-86
2022/04/22 08:05:23;;;;;;;6.63;3.30;;;11.00;74.00;;;;;;4827834;29;20708;-86
2022/04/22 08:07:49;;;;;;;5.53;2.90;;;11.20;73.90;;;;;;4828931;29;20567;-87
2022/04/22 08:10:14;;;;;;;6.23;3.40;;;11.20;72.80;;;;;;4813420;29;20564;-87
2022/04/22 08:12:40;;;;;;;7.87;3.17;;;11.30;73.20;;;;;;4828540;29;20191;-87
2022/04/22 08:15:05;;;;;;;8.30;3.27;;;11.40;72.70;;;;;;4829279;29;20203;-85
2022/04/22 08:17:36;;;;;;;8.13;2.97;;;11.50;71.60;;;;;;4829221;29;20176;-87
2022/04/22 08:20:04;;;;;;;6.07;3.00;;;11.60;71.20;;;;;;4815041;29;20176;-89
2022/04/22 08:22:30;;;;;;;8.60;3.47;;;11.50;71.70;;;;;;4813372;29;20184;-88
2022/04/22 08:24:56;;;;;;;5.77;2.97;;;11.60;70.90;;;;;;4827040;29;20614;-88
2022/04/22 08:27:22;;;;;;;5.10;3.07;;;11.70;71.50;;;;;;4810715;29;20283;-86
2022/04/22 08:29:48;;;;;;;7.10;3.50;;;11.70;70.40;;;;;;4811156;29;20188;-87
2022/04/22 08:32:13;;;;;;;8.20;3.50;;;11.80;71.10;;;;;;4827356;29;20259;-87
2022/04/22 08:34:39;;;;;;;11.13;4.03;;;11.80;70.50;;;;;;4810747;29;20202;-89
2022/04/22 08:37:04;;;;;;;6.77;3.20;;;11.90;71.70;;;;;;4810804;29;20623;-85
2022/04/22 08:39:30;;;;;;;8.63;3.40;;;12.00;70.10;;;;;;4827054;29;20205;-86
2022/04/22 08:41:57;;;;;;;5.13;3.40;;;12.20;69.50;;;;;;4811477;29;20184;-87
2022/04/22 08:44:23;;;;;;;7.27;3.10;;;12.30;68.70;;;;;;4828595;29;20176;-86
2022/04/22 08:52:22;;;;;;;8.67;3.23;;;12.70;68.50;;;;;;4827842;29;20179;-84
2022/04/22 08:54:52;;;;;;;4.07;2.40;;;12.70;67.70;;;;;;4810392;29;20179;-86
2022/04/22 08:57:19;;;;;;;8.60;3.23;;;12.70;67.20;;;;;;4826631;29;20685;-90
2022/04/22 08:59:45;;;;;;;5.40;3.07;;;12.70;66.80;;;;;;4827633;29;20217;-86
2022/04/22 09:02:10;;;;;;;7.57;3.77;;;12.80;67.10;;;;;;4810058;29;20223;-86
2022/04/22 09:04:36;;;;;;;5.07;3.07;;;12.80;67.60;;;;;;4826192;29;20172;-86
2022/04/22 09:07:02;;;;;;;8.20;3.53;;;12.80;66.40;;;;;;4826178;29;20203;-85
2022/04/22 09:09:29;;;;;;;7.43;3.67;;;13.00;68.00;;;;;;4809623;29;20237;-86
2022/04/22 09:12:10;;;;;;;6.87;3.60;;;13.20;68.60;;;;;;4810293;29;20647;-87
2022/04/22 09:14:42;;;;;;;7.10;3.67;;;13.40;64.30;;;;;;4811059;29;20558;-89
2022/04/22 09:17:07;;;;;;;8.67;3.47;;;13.20;63.90;;;;;;4827755;29;20200;-87
2022/04/22 09:19:36;;;;;;;4.90;3.53;;;13.20;65.20;;;;;;4810484;29;20194;-87
2022/04/22 09:22:02;;;;;;;7.37;3.73;;;13.10;64.40;;;;;;4809906;29;20271;-86
2022/04/22 09:24:28;;;;;;;8.10;3.17;;;13.20;65.10;;;;;;4810181;29;20207;-85
2022/04/22 09:27:04;;;;;;;11.20;3.60;;;13.40;66.20;;;;;;4809148;29;20725;-85
2022/04/22 09:29:29;;;;;;;5.47;3.20;;;13.70;64.50;;;;;;4826147;29;20176;-85
2022/04/22 09:31:55;;;;;;;6.47;3.50;;;13.70;64.80;;;;;;4825956;29;20180;-85
2022/04/22 09:34:36;;;;;;;10.00;3.60;;;13.70;64.80;;;;;;4826193;29;20223;-85
2022/04/22 09:42:51;;;;;;;8.07;3.60;;;13.90;65.00;;;;;;4828247;29;20177;-86
2022/04/22 09:45:17;;;;;;;4.60;3.10;;;14.00;62.60;;;;;;4810733;29;20212;-86
2022/04/22 09:47:43;;;;;;;6.47;3.07;;;13.80;63.50;;;;;;4826431;29;20223;-86
2022/04/22 09:50:14;;;;;;;8.27;3.30;;;13.90;61.70;;;;;;4826453;29;20244;-84
2022/04/22 09:52:44;;;;;;;4.23;2.97;;;13.90;63.30;;;;;;4810754;29;20180;-88
2022/04/22 09:55:15;;;;;;;5.17;3.43;;;13.90;62.50;;;;;;4809304;29;20212;-88
2022/04/22 09:57:52;;;;;;;5.27;3.10;;;14.20;64.60;;;;;;4825717;29;20196;-88
2022/04/22 10:00:24;;;;;;;6.00;3.27;;;14.30;64.00;;;;;;4825577;29;20225;-87
2022/04/22 10:02:53;;;;;;;6.40;3.00;;;14.40;62.10;;;;;;4825736;29;20696;-88
2022/04/22 10:05:27;;;;;;;12.50;4.10;;;14.30;62.20;;;;;;4825597;29;20207;-88
2022/04/22 10:07:56;;;;;;;9.50;4.00;;;14.30;62.40;;;;;;4808757;29;20534;-88
2022/04/22 10:10:37;;;;;;;7.93;3.63;;;14.40;63.70;;;;;;4808546;29;20180;-88
2022/04/22 10:13:04;;;;;;;10.43;3.80;;;14.40;63.80;;;;;;4825358;29;20206;-88
2022/04/22 10:15:33;;;;;;;7.43;3.43;;;14.50;62.40;;;;;;4825071;29;20719;-88
2022/04/22 10:18:00;;;;;;;5.00;2.90;;;14.50;62.70;;;;;;4808938;29;20651;-88
2022/04/22 10:20:26;;;;;;;8.13;3.90;;;14.50;63.20;;;;;;4809565;29;20180;-88
2022/04/22 10:22:52;;;;;;;6.87;3.50;;;14.40;63.50;;;;;;4825122;29;20202;-88
2022/04/22 10:25:19;;;;;;;9.37;3.17;;;14.10;62.50;;;;;;4808435;29;20222;-88
2022/04/22 10:27:50;;;;;;;13.83;4.63;;;13.90;63.70;;;;;;4808895;29;20180;-87
2022/04/22 10:30:17;;;;;;;7.87;3.70;;;13.60;64.60;;;;;;4825552;29;20176;-87
2022/04/22 10:32:47;;;;;;;4.77;3.03;;;13.50;66.10;;;;;;4808590;29;20236;-88
2022/04/22 10:35:13;;;;;;;7.53;3.63;;;13.20;65.50;;;;;;4808573;29;20254;-87
2022/04/22 10:37:41;;;;;;;7.07;3.80;;;12.80;66.10;;;;;;4808464;29;20659;-91
2022/04/22 10:40:17;;;;;;;9.63;3.93;;;12.80;67.70;;;;;;4809027;29;20212;-87
2022/04/22 10:42:43;;;;;;;6.90;3.67;;;12.70;68.30;;;;;;4808676;29;20177;-87
2022/04/22 10:47:55;;;;;;;7.20;3.77;;;13.00;66.90;;;;;;4825244;29;20175;-88
2022/04/22 10:50:28;;;;;;;9.23;4.70;;;13.00;65.80;;;;;;4824955;29;20176;-88
2022/04/22 10:53:07;;;;;;;8.17;3.80;;;13.10;67.60;;;;;;4808607;29;20172;-89
2022/04/22 10:55:36;;;;;;;11.90;3.83;;;13.10;67.50;;;;;;4808589;29;20774;-88
2022/04/22 10:58:13;;;;;;;7.97;3.57;;;12.80;67.00;;;;;;4809390;29;20183;-89
2022/04/22 11:00:46;;;;;;;8.10;4.00;;;12.80;68.60;;;;;;4825033;29;20175;-87
2022/04/22 11:03:14;;;;;;;8.33;4.00;;;12.80;67.70;;;;;;4808455;29;20172;-87
2022/04/22 11:05:59;;;;;;;7.43;4.40;;;12.80;66.80;;;;;;4808747;29;20586;-87
2022/04/22 11:08:29;;;;;;;7.30;4.53;;;12.70;66.50;;;;;;4809210;29;20654;-88
2022/04/22 11:10:54;;;;;;;11.77;5.23;;;12.70;68.30;;;;;;4809020;29;20184;-88
2022/04/22 11:13:42;;;;;;;8.80;4.20;;;12.40;68.40;;;;;;4808794;29;20244;-88
2022/04/22 11:16:08;;;;;;;8.77;4.17;;;12.20;68.10;;;;;;4808538;29;20307;-87
2022/04/22 11:18:42;;;;;;;9.20;4.30;;;12.10;69.10;;;;;;4809065;29;20208;-87
2022/04/22 11:21:13;;;;;;;6.83;3.97;;;12.00;69.00;;;;;;4811689;29;20595;-88
2022/04/22 11:23:46;;;;;;;11.20;5.13;;;12.00;69.70;;;;;;4811895;29;20272;-86
2022/04/22 11:26:14;;;;;;;7.27;4.10;;;12.10;70.60;;;;;;4828121;29;20218;-87
2022/04/22 11:28:41;;;;;;;8.27;4.50;;;12.00;69.00;;;;;;4813228;29;20199;-88
2022/04/22 11:31:09;;;;;;;11.33;4.80;;;11.80;69.30;;;;;;4812000;29;20215;-86
2022/04/22 11:33:44;;;;;;;8.03;4.40;;;11.80;70.10;;;;;;4811436;29;20184;-87
2022/04/22 11:36:10;;;;;;;9.20;4.73;;;11.80;70.40;;;;;;4811462;29;20611;-86
2022/04/22 11:38:45;;;;;;;11.63;4.53;;;11.70;70.30;;;;;;4811745;29;20188;-85
2022/04/22 11:41:14;;;;;;;12.90;4.37;;;11.80;71.90;;;;;;4811566;29;20666;-86
2022/04/22 11:43:41;;;;;;;10.40;4.53;;;11.80;70.40;;;;;;4827775;29;20180;-86
2022/04/22 11:46:07;;;;;;;12.20;5.07;;;12.00;71.90;;;;;;4827562;29;20570;-86
2022/04/22 11:48:32;;;;;;;10.13;5.10;;;12.00;70.90;;;;;;4827720;29;20188;-87
2022/04/22 11:50:59;;;;;;;9.40;5.33;;;12.20;72.50;;;;;;4811579;29;20192;-87
2022/04/22 11:53:34;;;;;;;13.70;6.17;;;12.50;70.70;;;;;;4827298;29;20596;-88
2022/04/22 11:56:01;;;;;;;8.70;4.03;;;12.80;69.30;;;;;;4827165;29;20219;-85
2022/04/22 11:58:27;;;;;;;7.70;4.03;;;12.70;68.80;;;;;;4810967;29;20272;-85
2022/04/22 12:06:24;;;;;;;5.57;3.93;;;13.00;69.80;;;;;;4827754;29;20576;-85
2022/04/22 12:09:00;;;;;;;10.23;4.60;;;13.00;68.50;;;;;;4810891;29;20188;-85
2022/04/22 12:11:25;;;;;;;7.17;4.60;;;13.00;68.40;;;;;;4829855;29;20168;-86
2022/04/22 12:13:52;;;;;;;10.23;3.40;;;12.80;68.50;;;;;;4813561;29;20639;-84
2022/04/22 12:16:22;;;;;;;12.70;5.37;;;13.00;69.80;;;;;;4812374;29;20220;-84
2022/04/22 12:18:49;;;;;;;10.50;5.23;;;13.00;69.10;;;;;;4812524;29;20191;-85
2022/04/22 12:21:16;;;;;;;9.07;4.83;;;13.10;69.60;;;;;;4814490;29;20184;-85
2022/04/22 12:23:45;;;;;;;9.97;4.77;;;13.30;68.00;;;;;;4813346;29;20678;-85
2022/04/22 12:26:21;;;;;;;10.70;5.37;;;13.30;68.10;;;;;;4813137;29;20231;-85
2022/04/22 12:28:58;;;;;;;12.40;4.60;;;13.50;68.70;;;;;;4813478;29;20206;-85
2022/04/22 12:31:24;;;;;;;8.27;4.93;;;13.60;68.50;;;;;;4828920;29;20176;-85
2022/04/22 12:34:04;;;;;;;6.43;4.27;;;13.60;67.40;;;;;;4813166;29;20211;-85
2022/04/22 12:36:34;;;;;;;11.83;4.53;;;13.80;66.30;;;;;;4828702;29;20299;-85
2022/04/22 12:38:59;;;;;;;7.43;3.87;;;14.10;66.40;;;;;;4812950;29;20656;-85
2022/04/22 12:41:25;;;;;;;7.33;3.40;;;14.40;64.20;;;;;;4812628;29;20187;-85
2022/04/22 12:43:55;;;;;;;11.17;4.57;;;14.40;64.90;;;;;;4813113;29;20199;-86
2022/04/22 12:52:19;;;;;;;10.97;4.90;;;14.80;62.90;;;;;;4830438;29;20221;-85
2022/04/22 12:54:46;;;;;;;8.40;4.63;;;15.00;65.20;;;;;;4810970;29;20237;-85
2022/04/22 12:57:23;;;;;;;9.93;4.67;;;15.00;65.60;;;;;;4811723;29;20232;-85
2022/04/22 12:59:51;;;;;;;9.30;4.30;;;15.00;63.60;;;;;;4810892;29;20210;-85
2022/04/22 13:02:18;;;;;;;9.93;4.57;;;15.20;65.00;;;;;;4809859;29;20260;-85
2022/04/22 13:05:01;;;;;;;8.47;3.97;;;14.90;64.90;;;;;;4826139;29;20229;-85
2022/04/22 13:07:40;;;;;;;10.23;5.50;;;14.70;64.10;;;;;;4809814;29;20173;-85
2022/04/22 13:10:10;;;;;;;10.80;4.97;;;14.50;66.20;;;;;;4809895;29;20180;-85
2022/04/22 13:12:39;;;;;;;12.90;4.57;;;14.30;65.80;;;;;;4809909;29;20593;-85
2022/04/22 13:15:07;;;;;;;9.43;4.43;;;14.50;66.90;;;;;;4809572;29;20215;-85
2022/04/22 13:17:37;;;;;;;12.80;5.37;;;14.70;65.30;;;;;;4809861;29;20655;-85
2022/04/22 13:20:04;;;;;;;11.40;5.63;;;14.80;66.10;;;;;;4809699;29;20180;-85
2022/04/22 13:22:30;;;;;;;9.70;5.27;;;14.80;65.60;;;;;;4810650;29;20694;-87
2022/04/22 13:24:55;;;;;;;10.90;4.87;;;15.10;65.20;;;;;;4809486;29;20221;-84
2022/04/22 13:27:21;;;;;;;13.17;5.00;;;15.00;63.90;;;;;;4825909;29;20217;-85
2022/04/22 13:29:46;;;;;;;8.53;5.03;;;15.10;64.10;;;;;;4827126;29;20180;-85
2022/04/22 13:32:12;;;;;;;8.37;4.47;;;15.10;64.30;;;;;;4826412;29;20513;-85
2022/04/22 13:34:37;;;;;;;7.23;4.00;;;15.20;63.70;;;;;;4825835;29;20248;-84
2022/04/22 13:37:03;;;;;;;10.13;3.97;;;15.30;63.20;;;;;;4809884;29;20640;-85
2022/04/22 13:39:29;;;;;;;6.37;4.50;;;15.30;62.20;;;;;;4809558;29;20218;-85
2022/04/22 13:41:54;;;;;;;6.80;4.30;;;15.40;62.00;;;;;;4826242;29;20686;-85
2022/04/22 13:52:21;;;;;;;6.77;4.20;;;15.60;61.90;;;;;;4825718;29;20215;-85
2022/04/22 13:52:33;;;;;;;8.07;4.70;;;15.50;62.20;;;;;;4826397;29;20175;-85
2022/04/22 13:55:01;;;;;;;8.30;3.67;;;15.50;62.60;;;;;;4809466;29;20184;-86
2022/04/22 13:57:26;;;;;;;11.00;4.10;;;15.70;61.50;;;;;;4826188;29;20527;-84
2022/04/22 13:59:52;;;;;;;7.83;4.10;;;15.90;60.60;;;;;;4825980;29;20187;-84
2022/04/22 14:02:17;;;;;;;8.45;4.07;;;15.70;62.00;;;;;;4825769;29;20181;-84
2022/04/22 14:04:43;;;;;;;8.80;3.90;;;15.80;58.70;;;;;;4826500;29;20184;-85
2022/04/22 14:07:09;;;;;;;10.67;3.87;;;15.80;58.80;;;;;;4809534;29;20663;-85